createdAt,value
2023-03-12T00:01:48.245Z,70.94
2023-03-12T00:04:21.549Z,70.93
2023-03-12T00:06:50.914Z,70.90
2023-03-12T00:09:23.223Z,70.85
2023-03-12T00:11:52.575Z,71.23
2023-03-12T00:14:23.557Z,71.41
2023-03-12T00:16:53.914Z,71.29
2023-03-12T00:19:24.565Z,71.31
2023-03-12T00:21:59.759Z,71.07
2023-03-12T00:24:30.462Z,71.25
2023-03-12T00:27:01.399Z,71.42
2023-03-12T00:29:30.442Z,71.52
2023-03-12T00:32:02.398Z,71.48
2023-03-12T00:34:33.079Z,71.55
2023-03-12T00:37:04.307Z,71.94
2023-03-12T00:39:34.631Z,71.59
2023-03-12T00:42:07.319Z,71.67
2023-03-12T00:44:38.476Z,71.68
2023-03-12T00:47:09.669Z,71.80
2023-03-12T00:49:42.591Z,71.82
2023-03-12T00:52:12.089Z,71.81
2023-03-12T00:54:41.604Z,71.49
2023-03-12T00:57:13.495Z,71.79
2023-03-12T00:59:43.928Z,71.85
2023-03-12T01:02:16.234Z,71.84
2023-03-12T01:04:46.854Z,71.83
2023-03-12T01:07:17.152Z,72.02
2023-03-12T01:09:47.522Z,72.08
2023-03-12T01:12:17.192Z,72.17
2023-03-12T01:14:47.807Z,72.04
2023-03-12T01:17:18.612Z,72.13
2023-03-12T01:19:50.117Z,72.03
2023-03-12T01:22:20.544Z,72.01
2023-03-12T01:24:49.464Z,72.34
2023-03-12T01:27:20.860Z,72.32
2023-03-12T01:29:49.719Z,72.29
2023-03-12T01:32:22.304Z,72.41
2023-03-12T01:34:52.635Z,72.65
2023-03-12T01:37:24.954Z,72.45
2023-03-12T01:39:56.179Z,72.47
2023-03-12T01:42:26.194Z,73.10
2023-03-12T01:45:01.407Z,73.05
2023-03-12T01:47:32.428Z,73.03
2023-03-12T01:50:06.060Z,73.20
2023-03-12T01:52:38.636Z,72.97
2023-03-12T01:55:15.257Z,73.23
2023-03-12T01:57:55.663Z,73.29
2023-03-12T02:00:29.365Z,73.01
2023-03-12T02:03:07.564Z,73.16
2023-03-12T02:05:52.926Z,72.88
2023-03-12T02:08:24.496Z,73.21
2023-03-12T02:10:54.891Z,73.03
2023-03-12T02:13:24.422Z,73.08
2023-03-12T02:15:54.655Z,73.29
2023-03-12T02:18:25.977Z,73.19
2023-03-12T02:21:18.876Z,73.25
2023-03-12T02:24:03.685Z,73.23
2023-03-12T02:26:37.205Z,73.50
2023-03-12T02:29:11.241Z,73.25
2023-03-12T02:31:52.528Z,73.12
2023-03-12T02:34:23.396Z,73.35
2023-03-12T02:36:54.182Z,73.18
2023-03-12T02:39:23.816Z,73.34
2023-03-12T02:41:58.145Z,73.46
2023-03-12T02:44:31.688Z,73.37
2023-03-12T02:47:04.744Z,73.77
2023-03-12T02:49:35.358Z,73.99
2023-03-12T02:52:04.854Z,74.02
2023-03-12T02:54:34.851Z,73.75
2023-03-12T02:57:06.357Z,73.94
2023-03-12T02:59:36.724Z,73.88
2023-03-12T03:02:10.866Z,73.72
2023-03-12T03:04:44.251Z,73.64
2023-03-12T03:07:15.229Z,73.86
2023-03-12T03:09:46.114Z,74.02
2023-03-12T03:12:15.479Z,74.00
2023-03-12T03:14:45.657Z,74.03
2023-03-12T03:17:15.887Z,73.70
2023-03-12T03:19:49.016Z,74.00
2023-03-12T03:22:19.652Z,73.91
2023-03-12T03:24:53.929Z,73.90
2023-03-12T03:27:25.430Z,74.11
2023-03-12T03:29:55.560Z,73.91
2023-03-12T03:32:25.068Z,74.00
2023-03-12T03:34:57.237Z,74.05
2023-03-12T03:37:28.757Z,74.31
2023-03-12T03:39:58.470Z,74.13
2023-03-12T03:42:30.181Z,74.05
2023-03-12T03:44:59.816Z,73.95
2023-03-12T03:47:32.291Z,73.69
2023-03-12T03:50:02.130Z,73.72
2023-03-12T03:52:33.763Z,73.88
2023-03-12T03:55:05.195Z,73.99
2023-03-12T03:57:37.468Z,73.86
2023-03-12T04:00:13.486Z,74.17
2023-03-12T04:02:49.100Z,73.86
2023-03-12T04:05:19.874Z,73.49
2023-03-12T04:07:50.328Z,73.44
2023-03-12T04:10:22.480Z,73.52
2023-03-12T04:12:54.609Z,73.56
2023-03-12T04:15:26.326Z,73.73
2023-03-12T04:17:57.262Z,73.92
2023-03-12T04:20:32.067Z,73.84
2023-03-12T04:23:04.512Z,73.79
2023-03-12T04:25:35.243Z,74.06
2023-03-12T04:28:07.936Z,74.53
2023-03-12T04:30:40.536Z,73.95
2023-03-12T04:33:13.228Z,74.08
2023-03-12T04:35:52.039Z,73.92
2023-03-12T04:38:26.548Z,73.26
2023-03-12T04:41:07.410Z,73.14
2023-03-12T04:43:38.211Z,73.12
2023-03-12T04:46:09.741Z,73.39
2023-03-12T04:48:41.436Z,72.90
2023-03-12T04:51:11.158Z,72.76
2023-03-12T04:53:42.362Z,72.62
2023-03-12T04:56:12.690Z,73.19
2023-03-12T04:58:42.978Z,73.18
2023-03-12T05:01:38.300Z,72.78
2023-03-12T05:04:15.010Z,73.04
2023-03-12T05:06:45.622Z,73.05
2023-03-12T05:09:18.939Z,72.93
2023-03-12T05:11:48.377Z,72.44
2023-03-12T05:14:20.121Z,72.60
2023-03-12T05:16:49.669Z,72.63
2023-03-12T05:19:21.841Z,72.60
2023-03-12T05:22:18.087Z,72.47
2023-03-12T05:24:49.747Z,72.12
2023-03-12T05:27:20.636Z,72.27
2023-03-12T05:29:52.165Z,72.54
2023-03-12T05:32:23.030Z,72.31
2023-03-12T05:34:54.696Z,72.64
2023-03-12T05:37:25.151Z,72.50
2023-03-12T05:39:56.777Z,72.89
2023-03-12T05:42:26.543Z,72.52
2023-03-12T05:44:59.695Z,72.72
2023-03-12T05:47:30.399Z,72.19
2023-03-12T05:50:01.022Z,72.19
2023-03-12T05:52:31.530Z,72.15
2023-03-12T05:55:05.172Z,71.92
2023-03-12T05:57:35.651Z,71.93
2023-03-12T06:00:05.983Z,72.17
2023-03-12T06:02:42.114Z,71.63
2023-03-12T06:09:56.696Z,71.22
2023-03-12T06:12:26.812Z,71.72
2023-03-12T06:14:55.972Z,71.76
2023-03-12T06:17:25.016Z,71.61
2023-03-12T06:19:56.235Z,71.19
2023-03-12T06:22:29.510Z,71.23
2023-03-12T06:24:58.601Z,71.15
2023-03-12T06:27:29.922Z,70.95
2023-03-12T06:30:00.352Z,71.27
2023-03-12T06:32:29.415Z,70.73
2023-03-12T06:35:01.139Z,70.36
2023-03-12T06:37:33.093Z,70.89
2023-03-12T06:40:03.108Z,69.14
2023-03-12T06:42:34.011Z,67.61
2023-03-12T06:45:07.972Z,66.45
2023-03-12T06:47:36.968Z,65.15
2023-03-12T06:50:08.395Z,65.06
2023-03-12T06:52:38.421Z,64.04
2023-03-12T06:55:09.843Z,62.18
2023-03-12T06:57:40.163Z,60.56
2023-03-12T07:00:11.700Z,59.68
2023-03-12T07:02:40.828Z,60.62
2023-03-12T07:05:12.933Z,59.92
2023-03-12T07:07:43.120Z,59.48
2023-03-12T07:10:14.675Z,57.68
2023-03-12T07:12:46.419Z,59.09
2023-03-12T07:15:16.904Z,61.96
2023-03-12T07:17:45.996Z,62.49
2023-03-12T07:20:15.601Z,63.96
2023-03-12T07:22:45.996Z,64.53
2023-03-12T07:25:17.272Z,63.70
2023-03-12T07:27:49.243Z,64.27
2023-03-12T07:30:22.015Z,64.97
2023-03-12T07:32:52.669Z,60.02
2023-03-12T07:35:24.358Z,59.18
2023-03-12T07:37:55.131Z,57.38
2023-03-12T07:40:24.611Z,58.43
2023-03-12T07:42:54.693Z,56.41
2023-03-12T07:45:24.225Z,54.71
2023-03-12T07:47:54.264Z,53.19
2023-03-12T07:50:24.344Z,52.41
2023-03-12T07:52:53.457Z,53.27
2023-03-12T07:55:23.987Z,53.69
2023-03-12T07:57:56.857Z,56.70
2023-03-12T08:00:31.418Z,57.51
2023-03-12T08:03:00.896Z,57.44
2023-03-12T08:05:32.604Z,56.87
2023-03-12T08:08:02.023Z,57.83
2023-03-12T08:10:31.234Z,59.92
2023-03-12T08:13:00.906Z,60.88
2023-03-12T08:15:29.884Z,60.33
2023-03-12T08:18:00.047Z,61.18
2023-03-12T08:20:30.824Z,61.59
2023-03-12T08:23:06.464Z,61.42
2023-03-12T08:25:39.149Z,61.89
2023-03-12T08:28:09.351Z,61.72
2023-03-12T08:30:38.618Z,62.34
2023-03-12T08:33:08.743Z,61.15
2023-03-12T08:35:39.102Z,61.29
2023-03-12T08:38:10.499Z,59.78
2023-03-12T08:40:41.909Z,56.57
2023-03-12T08:43:11.300Z,56.03
2023-03-12T08:45:43.390Z,56.32
2023-03-12T08:48:15.773Z,53.41
2023-03-12T08:51:10.846Z,52.50
2023-03-12T08:53:42.770Z,51.66
2023-03-12T08:56:12.028Z,52.90
2023-03-12T08:58:43.831Z,53.79
2023-03-12T09:01:14.032Z,52.34
2023-03-12T09:08:27.502Z,52.38
2023-03-12T09:11:08.439Z,53.15
2023-03-12T09:13:58.128Z,53.07
2023-03-12T09:16:28.374Z,54.94
2023-03-12T09:18:57.781Z,54.98
2023-03-12T09:21:29.034Z,50.99
2023-03-12T09:23:58.295Z,50.67
2023-03-12T09:26:28.705Z,52.76
2023-03-12T09:28:59.225Z,52.39
2023-03-12T09:31:28.523Z,52.91
2023-03-12T09:33:57.416Z,51.30
2023-03-12T09:36:26.388Z,49.10
2023-03-12T09:38:55.916Z,51.34
2023-03-12T09:41:39.391Z,50.12
2023-03-12T09:44:24.692Z,52.55
2023-03-12T09:46:58.162Z,51.39
2023-03-12T09:49:38.994Z,50.27
2023-03-12T09:52:36.858Z,51.56
2023-03-12T09:55:17.644Z,47.94
2023-03-12T09:57:50.863Z,49.63
2023-03-12T10:00:23.843Z,52.23
2023-03-12T10:02:58.654Z,49.87
2023-03-12T10:05:55.933Z,52.36
2023-03-12T10:08:47.892Z,50.40
2023-03-12T10:11:29.167Z,49.13
2023-03-12T10:14:23.642Z,48.91
2023-03-12T10:17:30.404Z,46.25
2023-03-12T10:20:31.376Z,47.73
2023-03-12T10:23:36.973Z,48.24
2023-03-12T10:26:29.102Z,46.92
2023-03-12T10:29:00.120Z,45.01
2023-03-12T10:31:52.057Z,44.98
2023-03-12T10:34:44.502Z,45.02
2023-03-12T10:37:27.352Z,46.71
2023-03-12T10:39:57.672Z,47.22
2023-03-12T10:42:29.447Z,44.76
2023-03-12T10:45:10.380Z,47.46
2023-03-12T10:47:41.269Z,45.40
2023-03-12T10:50:25.517Z,45.97
2023-03-12T10:53:24.026Z,45.19
2023-03-12T10:56:02.376Z,46.78
2023-03-12T10:58:35.883Z,46.79
2023-03-12T11:01:16.554Z,47.79
2023-03-12T11:03:46.654Z,47.91
2023-03-12T11:06:29.374Z,47.41
2023-03-12T11:09:16.994Z,49.23
2023-03-12T11:11:48.947Z,47.88
2023-03-12T11:14:21.534Z,46.57
2023-03-12T11:16:52.155Z,47.11
2023-03-12T11:19:32.459Z,47.79
2023-03-12T11:22:08.642Z,48.31
2023-03-12T11:24:55.033Z,47.20
2023-03-12T11:27:42.507Z,46.73
2023-03-12T11:30:16.579Z,48.05
2023-03-12T11:32:48.413Z,46.42
2023-03-12T11:35:28.445Z,46.57
2023-03-12T11:38:09.247Z,48.07
2023-03-12T11:41:00.209Z,45.29
2023-03-12T11:43:43.558Z,47.34
2023-03-12T11:46:18.946Z,47.34
2023-03-12T11:48:56.912Z,45.46
2023-03-12T11:51:52.467Z,47.23
2023-03-12T11:54:58.646Z,46.27
2023-03-12T11:57:39.279Z,47.24
2023-03-12T12:00:17.875Z,46.47
2023-03-12T12:03:24.521Z,47.05
2023-03-12T12:06:19.859Z,46.79
2023-03-12T12:09:16.343Z,47.12
2023-03-12T12:11:58.390Z,46.36
2023-03-12T12:14:59.072Z,46.57
2023-03-12T12:17:50.394Z,46.84
2023-03-12T12:21:00.027Z,46.87
2023-03-12T12:23:58.910Z,46.87
2023-03-12T12:26:58.790Z,46.45
2023-03-12T12:30:00.576Z,44.90
2023-03-12T12:33:05.732Z,46.13
2023-03-12T12:35:42.808Z,44.96
2023-03-12T12:38:44.629Z,45.90
2023-03-12T12:41:25.610Z,47.52
2023-03-12T12:44:02.945Z,47.52
2023-03-12T12:46:37.808Z,44.72
2023-03-12T12:49:13.248Z,45.81
2023-03-12T12:51:48.979Z,45.97
2023-03-12T12:54:55.758Z,46.36
2023-03-12T12:57:33.200Z,46.33
2023-03-12T13:00:40.343Z,46.14
2023-03-12T13:03:20.984Z,45.27
2023-03-12T13:05:53.061Z,45.11
2023-03-12T13:08:40.113Z,45.36
2023-03-12T13:11:20.680Z,45.97
2023-03-12T13:14:05.332Z,45.47
2023-03-12T13:16:49.911Z,46.02
2023-03-12T13:19:20.698Z,45.79
2023-03-12T13:22:33.028Z,45.79
2023-03-12T13:25:48.557Z,46.18
2023-03-12T13:28:36.769Z,45.52
2023-03-12T13:31:30.167Z,45.14
2023-03-12T13:34:21.521Z,44.56
2023-03-12T13:36:59.819Z,46.14
2023-03-12T13:39:32.476Z,46.74
2023-03-12T13:42:22.009Z,46.95
2023-03-12T13:44:53.898Z,46.55
2023-03-12T13:47:37.925Z,46.34
2023-03-12T13:50:17.237Z,45.93
2023-03-12T13:52:52.396Z,46.42
2023-03-12T13:55:28.012Z,45.99
2023-03-12T13:58:12.206Z,45.49
2023-03-12T14:00:57.420Z,45.72
2023-03-12T14:03:40.469Z,46.27
2023-03-12T14:06:14.492Z,46.77
2023-03-12T14:09:12.612Z,46.60
2023-03-12T14:11:59.527Z,46.39
2023-03-12T14:14:44.326Z,46.35
2023-03-12T14:17:24.672Z,46.39
2023-03-12T14:20:12.543Z,46.70
2023-03-12T14:22:46.048Z,46.03
2023-03-12T14:25:28.382Z,46.76
2023-03-12T14:28:00.861Z,45.65
2023-03-12T14:30:45.067Z,46.02
2023-03-12T14:33:20.368Z,45.95
2023-03-12T14:35:58.151Z,46.42
2023-03-12T14:38:45.968Z,46.06
2023-03-12T14:41:46.785Z,46.22
2023-03-12T14:44:25.270Z,45.79
2023-03-12T14:47:00.575Z,45.84
2023-03-12T14:49:32.323Z,45.94
2023-03-12T14:52:02.070Z,46.12
2023-03-12T14:54:31.792Z,45.84
2023-03-12T14:57:02.985Z,46.19
2023-03-12T14:59:35.419Z,46.18
2023-03-12T15:02:19.346Z,46.20
2023-03-12T15:04:59.071Z,46.06
2023-03-12T15:07:38.348Z,46.24
2023-03-12T15:10:25.316Z,46.29
2023-03-12T15:13:06.707Z,46.32
2023-03-12T15:15:50.643Z,46.99
2023-03-12T15:18:28.178Z,46.63
2023-03-12T15:21:06.006Z,46.56
2023-03-12T15:23:46.637Z,46.78
2023-03-12T15:26:30.778Z,46.73
2023-03-12T15:29:05.783Z,46.84
2023-03-12T15:31:50.895Z,46.91
2023-03-12T15:34:56.165Z,47.27
2023-03-12T15:37:43.003Z,47.30
2023-03-12T15:40:25.554Z,47.35
2023-03-12T15:42:59.729Z,47.57
2023-03-12T15:45:40.775Z,47.68
2023-03-12T15:48:39.047Z,47.97
2023-03-12T15:55:27.174Z,47.69
2023-03-12T15:58:47.817Z,48.20
2023-03-12T16:01:52.908Z,48.54
2023-03-12T16:04:25.197Z,48.30
2023-03-12T16:06:56.720Z,48.17
2023-03-12T16:09:29.760Z,48.17
2023-03-12T16:12:01.318Z,48.66
2023-03-12T16:14:40.149Z,48.78
2023-03-12T16:17:26.284Z,48.54
2023-03-12T16:20:18.277Z,48.66
2023-03-12T16:22:50.535Z,48.56
2023-03-12T16:25:22.610Z,48.65
2023-03-12T16:28:01.744Z,48.89
2023-03-12T16:30:35.918Z,48.98
2023-03-12T16:33:09.281Z,49.00
2023-03-12T16:35:39.921Z,49.12
2023-03-12T16:38:14.472Z,48.81
2023-03-12T16:41:08.344Z,49.47
2023-03-12T16:43:41.750Z,48.92
2023-03-12T16:46:21.327Z,49.16
2023-03-12T16:48:57.093Z,49.34
2023-03-12T16:51:38.345Z,49.25
2023-03-12T16:54:12.345Z,49.20
2023-03-12T16:56:50.412Z,49.18
2023-03-12T16:59:25.709Z,49.35
2023-03-12T17:02:00.066Z,49.32
2023-03-12T17:04:32.136Z,49.56
2023-03-12T17:07:05.799Z,49.59
2023-03-12T17:09:38.413Z,49.61
2023-03-12T17:12:39.434Z,49.63
2023-03-12T17:15:23.889Z,49.47
2023-03-12T17:17:56.936Z,49.89
2023-03-12T17:20:38.111Z,49.78
2023-03-12T17:23:10.657Z,49.64
2023-03-12T17:25:47.614Z,49.81
2023-03-12T17:28:21.693Z,50.16
2023-03-12T17:30:54.734Z,50.15
2023-03-12T17:33:29.324Z,49.88
2023-03-12T17:36:03.862Z,50.01
2023-03-12T17:38:36.040Z,49.78
2023-03-12T17:41:23.508Z,50.14
2023-03-12T17:44:03.640Z,50.41
2023-03-12T17:46:36.048Z,50.43
2023-03-12T17:49:12.303Z,50.09
2023-03-12T17:52:14.695Z,50.28
2023-03-12T17:54:52.752Z,50.51
2023-03-12T17:57:27.252Z,50.50
2023-03-12T18:00:03.074Z,50.72
2023-03-12T18:06:48.708Z,50.36
2023-03-12T18:09:20.575Z,50.51
2023-03-12T18:11:54.234Z,50.82
2023-03-12T18:14:31.359Z,50.97
2023-03-12T18:17:05.271Z,50.80
2023-03-12T18:19:37.019Z,51.07
2023-03-12T18:22:08.438Z,51.03
2023-03-12T18:24:48.849Z,51.12
2023-03-12T18:30:30.508Z,51.13
2023-03-12T18:33:06.425Z,51.04
2023-03-12T18:35:42.458Z,51.35
2023-03-12T18:38:16.621Z,51.37
2023-03-12T18:40:53.884Z,51.53
2023-03-12T18:43:27.530Z,51.49
2023-03-12T18:46:00.130Z,51.53
2023-03-12T18:48:34.672Z,51.28
2023-03-12T18:51:09.788Z,51.47
2023-03-12T18:53:46.544Z,51.43
2023-03-12T18:56:19.014Z,51.57
2023-03-12T18:58:51.074Z,51.29
2023-03-12T19:01:25.486Z,51.64
2023-03-12T19:04:00.997Z,51.29
2023-03-12T19:06:49.820Z,51.57
2023-03-12T19:09:28.503Z,51.75
2023-03-12T19:12:05.317Z,51.56
2023-03-12T19:14:40.225Z,51.58
2023-03-12T19:17:14.525Z,51.60
2023-03-12T19:19:50.515Z,51.67
2023-03-12T19:22:24.046Z,51.65
2023-03-12T19:24:56.592Z,51.79
2023-03-12T19:27:30.697Z,51.97
2023-03-12T19:30:03.523Z,51.70
2023-03-12T19:32:43.382Z,51.47
2023-03-12T19:35:18.460Z,51.68
2023-03-12T19:37:52.864Z,52.07
2023-03-12T19:40:25.997Z,51.79
2023-03-12T19:42:57.766Z,51.89
2023-03-12T19:45:30.228Z,51.72
2023-03-12T19:48:02.550Z,52.29
2023-03-12T19:50:35.200Z,52.03
2023-03-12T19:53:09.741Z,52.15
2023-03-12T19:55:43.162Z,52.32
2023-03-12T19:58:16.249Z,52.08
2023-03-12T20:00:50.289Z,52.05
2023-03-12T20:03:28.173Z,52.12
2023-03-12T20:05:58.765Z,52.20
2023-03-12T20:08:32.611Z,52.25
2023-03-12T20:11:07.423Z,52.40
2023-03-12T20:13:40.661Z,52.12
2023-03-12T20:16:23.576Z,52.05
2023-03-12T20:18:58.587Z,52.55
2023-03-12T20:22:45.701Z,52.19
2023-03-12T20:25:21.557Z,52.30
2023-03-12T20:27:56.945Z,52.36
2023-03-12T20:30:30.218Z,52.66
2023-03-12T20:33:03.528Z,52.63
2023-03-12T20:35:37.763Z,52.63
2023-03-12T20:38:32.931Z,52.69
2023-03-12T20:41:11.515Z,53.12
2023-03-12T20:43:46.336Z,52.54
2023-03-12T20:46:20.559Z,52.74
2023-03-12T20:48:56.631Z,53.02
2023-03-12T20:51:28.164Z,53.03
2023-03-12T20:54:07.464Z,53.06
2023-03-12T20:56:45.242Z,52.85
2023-03-12T20:59:17.522Z,53.01
2023-03-12T21:02:03.553Z,53.09
2023-03-12T21:04:34.964Z,53.03
2023-03-12T21:07:06.222Z,53.29
2023-03-12T21:09:41.653Z,53.43
2023-03-12T21:12:11.926Z,53.23
2023-03-12T21:14:45.650Z,53.30
2023-03-12T21:17:18.817Z,53.30
2023-03-12T21:19:53.356Z,53.61
2023-03-12T21:26:53.336Z,53.89
2023-03-12T21:29:26.355Z,53.59
2023-03-12T21:31:59.603Z,54.11
2023-03-12T21:35:00.048Z,53.60
2023-03-12T21:37:33.418Z,53.71
2023-03-12T21:40:40.094Z,53.96
2023-03-12T21:43:35.283Z,54.10
2023-03-12T21:51:45.361Z,54.31
2023-03-12T21:54:20.604Z,53.87
2023-03-12T21:56:52.170Z,54.19
2023-03-12T21:59:22.777Z,54.18
2023-03-12T22:01:58.556Z,54.04
2023-03-12T22:04:30.733Z,54.36
2023-03-12T22:07:02.443Z,54.18
2023-03-12T22:09:32.008Z,54.29
2023-03-12T22:12:02.436Z,54.45
2023-03-12T22:14:34.385Z,54.52
2023-03-12T22:17:09.390Z,54.45
2023-03-12T22:19:42.004Z,54.39
2023-03-12T22:22:12.787Z,54.31
2023-03-12T22:24:43.947Z,54.64
2023-03-12T22:27:14.459Z,54.59
2023-03-12T22:29:46.104Z,54.61
2023-03-12T22:32:19.474Z,54.73
2023-03-12T22:34:51.916Z,54.70
2023-03-12T22:37:21.743Z,54.59
2023-03-12T22:39:54.337Z,54.87
2023-03-12T22:42:25.958Z,55.03
2023-03-12T22:44:56.122Z,54.81
2023-03-12T22:47:27.814Z,54.64
2023-03-12T22:49:58.844Z,54.79
2023-03-12T22:52:29.830Z,54.87
2023-03-12T22:55:01.160Z,55.04
2023-03-12T22:57:36.764Z,55.02
2023-03-12T23:00:10.970Z,54.96
2023-03-12T23:02:41.432Z,55.23
2023-03-12T23:05:14.153Z,55.28
2023-03-12T23:07:43.644Z,55.30
2023-03-12T23:10:17.483Z,55.34
2023-03-12T23:12:48.833Z,55.27
2023-03-12T23:15:22.581Z,55.42
2023-03-12T23:17:55.855Z,55.46
2023-03-12T23:21:39.552Z,55.42
2023-03-12T23:24:11.400Z,55.57
2023-03-12T23:26:44.065Z,55.67
2023-03-12T23:29:15.327Z,55.56
2023-03-12T23:31:46.687Z,55.80
2023-03-12T23:34:19.735Z,55.97
2023-03-12T23:36:50.190Z,55.82
2023-03-12T23:39:21.579Z,55.86
2023-03-12T23:41:50.944Z,56.02
2023-03-12T23:44:24.187Z,55.79
2023-03-12T23:46:54.173Z,55.83
2023-03-12T23:49:27.217Z,55.72
2023-03-12T23:51:59.678Z,55.85
2023-03-12T23:54:30.672Z,55.76
2023-03-12T23:57:03.130Z,56.27
2023-03-12T23:59:33.805Z,56.07
